createdAt,value
2022-09-27T00:01:13.397Z,12.87
2022-09-27T00:03:41.830Z,12.86
2022-09-27T00:06:14.791Z,12.86
2022-09-27T00:08:43.632Z,12.85
2022-09-27T00:11:18.678Z,12.84
2022-09-27T00:13:46.755Z,12.82
2022-09-27T00:16:15.197Z,12.80
2022-09-27T00:18:43.987Z,12.82
2022-09-27T00:21:15.068Z,12.83
2022-09-27T00:23:43.297Z,12.82
2022-09-27T00:26:14.273Z,12.79
2022-09-27T00:28:42.440Z,12.77
2022-09-27T00:31:22.088Z,12.77
2022-09-27T00:33:50.913Z,12.78
2022-09-27T00:36:21.509Z,12.80
2022-09-27T00:38:49.851Z,12.81
2022-09-27T00:41:20.546Z,12.80
2022-09-27T00:43:53.151Z,12.79
2022-09-27T00:46:27.569Z,12.82
2022-09-27T00:49:05.365Z,12.80
2022-09-27T00:51:38.386Z,12.83
2022-09-27T00:54:08.576Z,12.83
2022-09-27T00:56:38.259Z,12.82
2022-09-27T00:59:11.111Z,12.84
2022-09-27T01:01:39.279Z,12.87
2022-09-27T01:04:10.182Z,12.85
2022-09-27T01:06:39.703Z,12.83
2022-09-27T01:09:09.105Z,12.83
2022-09-27T01:11:45.802Z,12.85
2022-09-27T01:14:41.934Z,12.80
2022-09-27T01:17:25.000Z,12.77
2022-09-27T01:20:31.378Z,12.77
2022-09-27T01:23:20.578Z,12.84
2022-09-27T01:25:59.275Z,12.84
2022-09-27T01:28:42.580Z,12.78
2022-09-27T01:31:21.069Z,12.77
2022-09-27T01:34:02.349Z,12.73
2022-09-27T01:36:38.841Z,12.76
2022-09-27T01:39:22.378Z,12.74
2022-09-27T01:42:00.563Z,12.78
2022-09-27T01:44:34.939Z,12.76
2022-09-27T01:47:08.806Z,12.67
2022-09-27T01:49:43.537Z,12.65
2022-09-27T01:52:14.526Z,12.63
2022-09-27T01:54:47.365Z,12.62
2022-09-27T01:57:21.412Z,12.60
2022-09-27T01:59:54.823Z,12.57
2022-09-27T02:02:28.437Z,12.52
2022-09-27T02:05:00.832Z,12.52
2022-09-27T02:07:33.907Z,12.50
2022-09-27T02:10:07.517Z,12.49
2022-09-27T02:12:44.508Z,12.50
2022-09-27T02:15:15.198Z,12.49
2022-09-27T02:17:49.402Z,12.50
2022-09-27T02:20:26.343Z,12.48
2022-09-27T02:23:00.751Z,12.50
2022-09-27T02:25:34.774Z,12.48
2022-09-27T02:28:10.335Z,12.46
2022-09-27T02:30:39.577Z,12.46
2022-09-27T02:33:09.082Z,12.42
2022-09-27T02:35:37.465Z,12.41
2022-09-27T02:38:08.084Z,12.40
2022-09-27T02:40:38.149Z,12.42
2022-09-27T02:43:07.575Z,12.36
2022-09-27T02:45:44.224Z,12.37
2022-09-27T02:48:22.873Z,12.33
2022-09-27T02:51:05.609Z,12.29
2022-09-27T02:53:43.134Z,12.24
2022-09-27T02:56:18.417Z,12.27
2022-09-27T02:58:55.706Z,12.28
2022-09-27T03:01:33.273Z,12.27
2022-09-27T03:04:09.183Z,12.26
2022-09-27T03:06:39.410Z,12.27
2022-09-27T03:09:07.321Z,12.26
2022-09-27T03:11:35.198Z,12.22
2022-09-27T03:14:09.078Z,12.18
2022-09-27T03:16:37.302Z,12.17
2022-09-27T03:19:06.713Z,12.17
2022-09-27T03:21:36.289Z,12.20
2022-09-27T03:24:04.938Z,12.20
2022-09-27T03:26:32.888Z,12.19
2022-09-27T03:29:01.199Z,12.15
2022-09-27T03:31:30.448Z,12.17
2022-09-27T03:33:58.564Z,12.18
2022-09-27T03:36:27.861Z,12.14
2022-09-27T03:38:56.119Z,12.17
2022-09-27T03:41:24.190Z,12.16
2022-09-27T03:43:52.322Z,12.13
2022-09-27T03:46:20.295Z,12.15
2022-09-27T03:48:48.225Z,12.11
2022-09-27T03:51:16.145Z,12.10
2022-09-27T03:53:45.534Z,12.00
2022-09-27T03:56:13.595Z,12.01
2022-09-27T03:58:41.522Z,12.02
2022-09-27T04:01:09.800Z,12.00
2022-09-27T04:03:38.236Z,11.98
2022-09-27T04:06:06.530Z,11.98
2022-09-27T04:08:34.979Z,11.97
2022-09-27T04:11:04.329Z,11.97
2022-09-27T04:13:32.308Z,11.95
2022-09-27T04:16:00.292Z,11.90
2022-09-27T04:18:28.247Z,11.83
2022-09-27T04:20:56.281Z,11.75
2022-09-27T04:23:29.050Z,11.71
2022-09-27T04:25:57.990Z,11.70
2022-09-27T04:28:28.101Z,11.68
2022-09-27T04:30:56.007Z,11.64
2022-09-27T04:33:24.137Z,11.64
2022-09-27T04:36:09.508Z,11.64
2022-09-27T04:38:37.629Z,11.66
2022-09-27T04:41:05.786Z,11.66
2022-09-27T04:43:35.201Z,11.61
2022-09-27T04:46:03.341Z,11.57
2022-09-27T04:48:31.629Z,11.53
2022-09-27T04:51:00.636Z,11.55
2022-09-27T04:53:29.719Z,11.52
2022-09-27T04:55:58.037Z,11.48
2022-09-27T04:58:26.701Z,11.46
2022-09-27T05:00:56.256Z,11.44
2022-09-27T05:03:24.669Z,11.41
2022-09-27T05:05:52.562Z,11.42
2022-09-27T05:08:21.047Z,11.40
2022-09-27T05:10:49.556Z,11.41
2022-09-27T05:13:18.509Z,11.37
2022-09-27T05:15:46.528Z,11.33
2022-09-27T05:18:16.010Z,11.29
2022-09-27T05:20:43.906Z,11.33
2022-09-27T05:23:12.201Z,11.30
2022-09-27T05:25:40.195Z,11.29
2022-09-27T05:28:09.510Z,11.26
2022-09-27T05:30:38.076Z,11.25
2022-09-27T05:33:06.179Z,11.25
2022-09-27T05:35:36.406Z,11.22
2022-09-27T05:38:04.346Z,11.21
2022-09-27T05:40:47.875Z,11.22
2022-09-27T05:43:16.487Z,11.20
2022-09-27T05:45:45.253Z,11.20
2022-09-27T05:48:14.479Z,11.17
2022-09-27T05:50:44.027Z,11.16
2022-09-27T05:53:13.288Z,11.15
2022-09-27T05:55:41.228Z,11.14
2022-09-27T05:58:11.552Z,11.17
2022-09-27T06:00:40.468Z,11.15
2022-09-27T06:03:12.474Z,11.17
2022-09-27T06:05:41.488Z,11.17
2022-09-27T06:08:13.006Z,11.20
2022-09-27T06:10:46.445Z,11.22
2022-09-27T06:13:16.060Z,11.21
2022-09-27T06:15:46.489Z,11.23
2022-09-27T06:18:18.122Z,11.27
2022-09-27T06:20:46.537Z,11.36
2022-09-27T06:23:18.342Z,11.42
2022-09-27T06:25:47.431Z,11.49
2022-09-27T06:28:16.129Z,11.54
2022-09-27T06:30:46.187Z,11.53
2022-09-27T06:33:16.211Z,11.49
2022-09-27T06:35:45.626Z,11.50
2022-09-27T06:38:16.821Z,11.39
2022-09-27T06:40:47.243Z,11.39
2022-09-27T06:43:17.083Z,11.38
2022-09-27T06:45:45.300Z,11.41
2022-09-27T06:48:16.249Z,11.50
2022-09-27T06:50:46.212Z,11.56
2022-09-27T06:53:17.914Z,11.58
2022-09-27T06:55:45.902Z,11.64
2022-09-27T06:58:31.631Z,11.68
2022-09-27T07:00:59.884Z,11.69
2022-09-27T07:03:34.583Z,11.65
2022-09-27T07:06:06.425Z,11.67
2022-09-27T07:08:35.992Z,11.74
2022-09-27T07:11:06.302Z,11.81
2022-09-27T07:13:37.373Z,11.82
2022-09-27T07:16:05.487Z,11.83
2022-09-27T07:18:33.531Z,11.87
2022-09-27T07:21:01.812Z,11.91
2022-09-27T07:23:32.216Z,11.92
2022-09-27T07:26:06.938Z,11.93
2022-09-27T07:28:36.453Z,11.91
2022-09-27T07:31:05.664Z,11.88
2022-09-27T07:33:34.142Z,11.84
2022-09-27T07:36:07.374Z,11.81
2022-09-27T07:38:35.700Z,11.77
2022-09-27T07:41:10.313Z,11.73
2022-09-27T07:43:38.561Z,11.79
2022-09-27T07:46:06.732Z,11.90
2022-09-27T07:48:34.845Z,11.97
2022-09-27T07:51:03.454Z,11.99
2022-09-27T07:53:31.586Z,12.00
2022-09-27T07:55:59.818Z,11.98
2022-09-27T07:58:30.538Z,12.01
2022-09-27T08:01:00.518Z,12.07
2022-09-27T08:03:29.677Z,12.07
2022-09-27T08:05:57.662Z,12.00
2022-09-27T08:08:25.838Z,12.01
2022-09-27T08:10:53.792Z,12.07
2022-09-27T08:13:21.716Z,12.13
2022-09-27T08:15:52.470Z,12.26
2022-09-27T08:18:22.040Z,12.28
2022-09-27T08:20:50.091Z,12.31
2022-09-27T08:23:17.982Z,12.40
2022-09-27T08:25:45.962Z,12.43
2022-09-27T08:28:13.935Z,12.43
2022-09-27T08:30:41.936Z,12.39
2022-09-27T08:33:11.473Z,12.37
2022-09-27T08:35:39.402Z,12.39
2022-09-27T08:38:07.422Z,12.42
2022-09-27T08:40:50.195Z,12.35
2022-09-27T08:43:28.560Z,12.42
2022-09-27T08:46:08.570Z,12.36
2022-09-27T08:48:40.365Z,12.46
2022-09-27T08:51:12.900Z,12.44
2022-09-27T08:53:49.318Z,12.49
2022-09-27T08:56:21.427Z,12.53
2022-09-27T08:58:53.935Z,12.59
2022-09-27T09:01:27.808Z,12.62
2022-09-27T09:04:04.230Z,12.61
2022-09-27T09:06:41.722Z,12.60
2022-09-27T09:09:22.322Z,12.63
2022-09-27T09:12:19.315Z,12.61
2022-09-27T09:14:57.985Z,12.67
2022-09-27T09:17:40.097Z,12.68
2022-09-27T09:20:29.139Z,12.71
2022-09-27T09:23:19.697Z,12.74
2022-09-27T09:25:58.689Z,12.81
2022-09-27T09:28:35.669Z,12.86
2022-09-27T09:31:15.299Z,12.93
2022-09-27T09:33:48.885Z,13.00
2022-09-27T09:36:28.383Z,13.02
2022-09-27T09:39:00.292Z,13.07
2022-09-27T09:41:32.495Z,13.10
2022-09-27T09:44:06.552Z,13.15
2022-09-27T09:46:43.537Z,13.12
2022-09-27T09:49:18.413Z,13.10
2022-09-27T09:51:52.742Z,12.99
2022-09-27T09:54:25.823Z,12.99
2022-09-27T09:57:00.943Z,12.95
2022-09-27T09:59:35.801Z,13.01
2022-09-27T10:02:21.206Z,13.02
2022-09-27T10:04:49.337Z,13.05
2022-09-27T10:07:23.227Z,13.11
2022-09-27T10:09:52.252Z,13.11
2022-09-27T10:12:20.788Z,13.09
2022-09-27T10:14:51.453Z,13.14
2022-09-27T10:17:22.520Z,13.19
2022-09-27T10:19:52.714Z,13.24
2022-09-27T10:22:28.632Z,13.30
2022-09-27T10:25:03.686Z,13.36
2022-09-27T10:27:41.354Z,13.41
2022-09-27T10:30:23.947Z,13.43
2022-09-27T10:32:54.494Z,13.65
2022-09-27T10:35:35.249Z,13.75
2022-09-27T10:38:24.253Z,13.87
2022-09-27T10:40:53.952Z,13.96
2022-09-27T10:43:31.304Z,13.93
2022-09-27T10:46:10.457Z,13.89
2022-09-27T10:48:41.762Z,13.83
2022-09-27T10:51:25.018Z,13.77
2022-09-27T10:53:58.827Z,13.75
2022-09-27T10:56:30.648Z,13.68
2022-09-27T10:59:00.262Z,13.73
2022-09-27T11:01:39.933Z,13.79
2022-09-27T11:04:08.406Z,13.78
2022-09-27T11:06:39.338Z,13.78
2022-09-27T11:09:26.591Z,13.63
2022-09-27T11:12:10.383Z,13.57
2022-09-27T11:14:38.981Z,13.71
2022-09-27T11:17:15.356Z,13.72
2022-09-27T11:20:10.678Z,13.80
2022-09-27T11:23:14.182Z,13.89
2022-09-27T11:25:53.592Z,13.97
2022-09-27T11:28:33.826Z,14.02
2022-09-27T11:31:18.848Z,14.15
2022-09-27T11:34:16.027Z,14.15
2022-09-27T11:36:59.928Z,14.25
2022-09-27T11:39:36.782Z,14.31
2022-09-27T11:42:23.847Z,14.39
2022-09-27T11:45:56.583Z,14.38
2022-09-27T11:48:24.350Z,14.32
2022-09-27T11:51:11.093Z,14.22
2022-09-27T11:53:55.018Z,14.28
2022-09-27T11:56:35.910Z,14.37
2022-09-27T11:59:25.032Z,14.34
2022-09-27T12:01:58.061Z,14.30
2022-09-27T12:05:02.020Z,14.17
2022-09-27T12:07:40.043Z,14.19
2022-09-27T12:10:14.342Z,14.21
2022-09-27T12:12:45.699Z,14.09
2022-09-27T12:15:19.615Z,14.08
2022-09-27T12:17:52.169Z,14.08
2022-09-27T12:20:24.594Z,14.04
2022-09-27T12:23:00.032Z,14.01
2022-09-27T12:25:37.305Z,14.01
2022-09-27T12:28:10.734Z,13.92
2022-09-27T12:30:45.058Z,13.80
2022-09-27T12:33:24.604Z,13.71
2022-09-27T12:35:55.275Z,13.68
2022-09-27T12:38:30.200Z,13.73
2022-09-27T12:41:00.673Z,13.79
2022-09-27T12:43:32.345Z,13.83
2022-09-27T12:46:12.325Z,13.82
2022-09-27T12:48:49.815Z,13.83
2022-09-27T12:51:19.969Z,13.89
2022-09-27T12:54:03.894Z,13.89
2022-09-27T12:56:45.872Z,13.90
2022-09-27T12:59:41.988Z,13.88
2022-09-27T13:03:14.046Z,13.77
2022-09-27T13:06:12.027Z,13.79
2022-09-27T13:09:01.680Z,13.81
2022-09-27T13:11:42.238Z,13.82
2022-09-27T13:14:19.637Z,13.76
2022-09-27T13:16:49.278Z,13.80
2022-09-27T13:19:42.642Z,13.73
2022-09-27T13:22:27.530Z,13.81
2022-09-27T13:24:55.508Z,13.78
2022-09-27T13:27:41.213Z,13.81
2022-09-27T13:30:48.192Z,13.86
2022-09-27T13:33:45.346Z,13.97
2022-09-27T13:36:31.459Z,14.03
2022-09-27T13:39:06.382Z,14.08
2022-09-27T13:41:53.567Z,14.13
2022-09-27T13:44:30.147Z,14.17
2022-09-27T13:47:01.602Z,14.19
2022-09-27T13:49:34.407Z,14.23
2022-09-27T13:52:06.529Z,14.31
2022-09-27T13:54:41.965Z,14.37
2022-09-27T13:57:45.307Z,14.45
2022-09-27T14:00:15.362Z,14.64
2022-09-27T14:02:55.538Z,14.74
2022-09-27T14:05:29.812Z,14.71
2022-09-27T14:08:02.342Z,14.78
2022-09-27T14:10:33.064Z,14.74
2022-09-27T14:13:05.908Z,14.75
2022-09-27T14:15:35.233Z,14.77
2022-09-27T14:18:03.533Z,14.82
2022-09-27T14:20:38.426Z,14.85
2022-09-27T14:23:07.316Z,14.81
2022-09-27T14:25:40.906Z,14.79
2022-09-27T14:28:23.905Z,14.82
2022-09-27T14:31:07.045Z,14.87
2022-09-27T14:33:35.960Z,14.88
2022-09-27T14:36:23.836Z,14.85
2022-09-27T14:38:51.931Z,14.87
2022-09-27T14:41:21.179Z,14.88
2022-09-27T14:43:52.964Z,14.84
2022-09-27T14:46:29.441Z,14.71
2022-09-27T14:48:59.308Z,14.75
2022-09-27T14:51:31.529Z,14.74
2022-09-27T14:54:01.536Z,14.75
2022-09-27T14:56:33.286Z,14.76
2022-09-27T14:59:07.868Z,14.73
2022-09-27T15:01:38.215Z,14.68
2022-09-27T15:04:08.634Z,14.74
2022-09-27T15:06:37.856Z,14.77
2022-09-27T15:09:07.488Z,14.81
2022-09-27T15:11:36.883Z,14.91
2022-09-27T15:14:06.379Z,14.95
2022-09-27T15:16:35.621Z,14.94
2022-09-27T15:19:07.452Z,14.93
2022-09-27T15:21:38.291Z,14.92
2022-09-27T15:24:07.314Z,14.85
2022-09-27T15:26:39.796Z,14.81
2022-09-27T15:29:08.351Z,14.81
2022-09-27T15:31:39.686Z,14.70
2022-09-27T15:34:08.011Z,14.69
2022-09-27T15:36:54.442Z,14.61
2022-09-27T15:39:29.396Z,14.58
2022-09-27T15:42:07.942Z,14.51
2022-09-27T15:44:46.047Z,14.54
2022-09-27T15:47:51.083Z,14.40
2022-09-27T15:50:35.084Z,14.36
2022-09-27T15:53:05.603Z,14.43
2022-09-27T15:55:37.205Z,14.44
2022-09-27T15:58:09.269Z,14.43
2022-09-27T16:00:37.264Z,14.33
2022-09-27T16:03:05.846Z,14.31
2022-09-27T16:05:33.881Z,14.22
2022-09-27T16:08:02.203Z,14.15
2022-09-27T16:10:33.726Z,14.03
2022-09-27T16:13:01.584Z,14.04
2022-09-27T16:15:30.889Z,13.98
2022-09-27T16:18:01.170Z,13.94
2022-09-27T16:20:29.313Z,13.97
2022-09-27T16:22:57.696Z,13.99
2022-09-27T16:25:25.886Z,13.97
2022-09-27T16:27:53.906Z,13.93
2022-09-27T16:30:21.852Z,13.95
2022-09-27T16:32:51.388Z,13.96
2022-09-27T16:35:20.682Z,13.95
2022-09-27T16:37:48.686Z,13.96
2022-09-27T16:40:21.802Z,13.95
2022-09-27T16:42:50.001Z,13.97
2022-09-27T16:45:19.623Z,13.95
2022-09-27T16:47:48.849Z,13.94
2022-09-27T16:50:35.900Z,13.88
2022-09-27T16:53:05.420Z,13.83
2022-09-27T16:55:33.266Z,13.89
2022-09-27T16:58:03.765Z,13.87
2022-09-27T17:00:33.303Z,13.75
2022-09-27T17:03:01.349Z,13.68
2022-09-27T17:05:31.899Z,13.68
2022-09-27T17:07:59.871Z,13.66
2022-09-27T17:10:28.606Z,13.61
2022-09-27T17:12:57.644Z,13.51
2022-09-27T17:15:26.188Z,13.42
2022-09-27T17:17:53.991Z,13.36
2022-09-27T17:20:21.960Z,13.32
2022-09-27T17:22:51.215Z,13.28
2022-09-27T17:25:19.073Z,13.24
2022-09-27T17:27:46.883Z,13.14
2022-09-27T17:30:14.903Z,13.09
2022-09-27T17:32:43.177Z,13.06
2022-09-27T17:35:11.106Z,13.05
2022-09-27T17:37:38.980Z,13.01
2022-09-27T17:40:10.074Z,13.01
2022-09-27T17:42:38.094Z,12.99
2022-09-27T17:45:06.872Z,12.96
2022-09-27T17:47:52.081Z,12.98
2022-09-27T17:50:25.800Z,12.98
2022-09-27T17:52:54.048Z,12.94
2022-09-27T17:55:24.526Z,12.95
2022-09-27T17:57:52.748Z,13.02
2022-09-27T18:00:21.483Z,13.00
2022-09-27T18:02:49.569Z,12.97
2022-09-27T18:05:20.990Z,12.92
2022-09-27T18:07:49.163Z,12.91
2022-09-27T18:10:17.977Z,12.86
2022-09-27T18:12:47.493Z,12.81
2022-09-27T18:15:17.025Z,12.78
2022-09-27T18:17:45.865Z,12.74
2022-09-27T18:20:13.805Z,12.65
2022-09-27T18:22:41.659Z,12.63
2022-09-27T18:25:11.567Z,12.62
2022-09-27T18:27:40.506Z,12.59
2022-09-27T18:30:12.140Z,12.60
2022-09-27T18:32:40.274Z,12.53
2022-09-27T18:35:09.071Z,12.49
2022-09-27T18:37:37.181Z,12.50
2022-09-27T18:40:05.363Z,12.47
2022-09-27T18:42:33.161Z,12.46
2022-09-27T18:45:00.957Z,12.36
2022-09-27T18:47:30.928Z,12.33
2022-09-27T18:49:58.857Z,12.37
2022-09-27T18:52:26.620Z,12.31
2022-09-27T18:54:54.882Z,12.32
2022-09-27T18:57:22.947Z,12.29
2022-09-27T18:59:50.725Z,12.27
2022-09-27T19:02:18.979Z,12.32
2022-09-27T19:04:48.348Z,12.38
2022-09-27T19:07:16.281Z,12.43
2022-09-27T19:09:44.834Z,12.48
2022-09-27T19:12:12.699Z,12.49
2022-09-27T19:14:40.557Z,12.51
2022-09-27T19:17:08.431Z,12.47
2022-09-27T19:19:36.435Z,12.49
2022-09-27T19:22:05.698Z,12.51
2022-09-27T19:24:33.527Z,12.47
2022-09-27T19:27:01.517Z,12.45
2022-09-27T19:29:29.477Z,12.47
2022-09-27T19:31:57.361Z,12.50
2022-09-27T19:34:25.228Z,12.52
2022-09-27T19:36:53.103Z,12.53
2022-09-27T19:39:22.296Z,12.55
2022-09-27T19:41:50.188Z,12.55
2022-09-27T19:44:18.063Z,12.61
2022-09-27T19:46:46.529Z,12.66
2022-09-27T19:49:14.500Z,12.65
2022-09-27T19:51:42.349Z,12.68
2022-09-27T19:54:11.293Z,12.76
2022-09-27T19:56:40.555Z,12.79
2022-09-27T19:59:08.339Z,12.79
2022-09-27T20:01:36.667Z,12.77
2022-09-27T20:04:04.660Z,12.76
2022-09-27T20:06:33.179Z,12.76
2022-09-27T20:09:03.039Z,12.76
2022-09-27T20:11:31.349Z,12.76
2022-09-27T20:14:01.212Z,12.78
2022-09-27T20:16:29.427Z,12.79
2022-09-27T20:18:58.942Z,12.79
2022-09-27T20:21:28.762Z,12.76
2022-09-27T20:23:58.506Z,12.63
2022-09-27T20:26:28.123Z,12.56
2022-09-27T20:28:58.405Z,12.54
2022-09-27T20:31:29.819Z,12.56
2022-09-27T20:33:57.893Z,12.57
2022-09-27T20:36:27.608Z,12.59
2022-09-27T20:39:01.907Z,12.59
2022-09-27T20:41:32.425Z,12.50
2022-09-27T20:44:03.480Z,12.44
2022-09-27T20:46:33.515Z,12.41
2022-09-27T20:49:03.970Z,12.34
2022-09-27T20:51:33.487Z,12.30
2022-09-27T20:54:01.751Z,12.32
2022-09-27T20:56:31.756Z,12.33
2022-09-27T20:59:01.395Z,12.36
2022-09-27T21:01:30.784Z,12.37
2022-09-27T21:04:01.666Z,12.42
2022-09-27T21:06:31.470Z,12.41
2022-09-27T21:09:00.568Z,12.28
2022-09-27T21:11:29.265Z,12.26
2022-09-27T21:13:57.274Z,12.26
2022-09-27T21:16:27.276Z,12.28
2022-09-27T21:18:57.490Z,12.29
2022-09-27T21:21:27.734Z,12.33
2022-09-27T21:23:58.093Z,12.34
2022-09-27T21:26:27.922Z,12.35
2022-09-27T21:28:58.274Z,12.34
2022-09-27T21:31:27.844Z,12.33
2022-09-27T21:33:58.956Z,12.30
2022-09-27T21:36:29.838Z,12.26
2022-09-27T21:38:58.450Z,12.23
2022-09-27T21:41:27.449Z,12.26
2022-09-27T21:43:55.646Z,12.26
2022-09-27T21:46:26.138Z,12.26
2022-09-27T21:48:56.685Z,12.28
2022-09-27T21:51:26.022Z,12.29
2022-09-27T21:53:57.070Z,12.30
2022-09-27T21:56:27.079Z,12.31
2022-09-27T21:58:54.969Z,12.29
2022-09-27T22:01:24.882Z,12.31
2022-09-27T22:03:55.626Z,12.34
2022-09-27T22:06:25.222Z,12.35
2022-09-27T22:08:53.614Z,12.33
2022-09-27T22:11:24.885Z,12.33
2022-09-27T22:13:53.223Z,12.38
2022-09-27T22:16:22.379Z,12.37
2022-09-27T22:18:52.715Z,12.27
2022-09-27T22:21:22.689Z,12.28
2022-09-27T22:23:55.088Z,12.31
2022-09-27T22:26:26.276Z,12.35
2022-09-27T22:28:54.907Z,12.34
2022-09-27T22:31:23.970Z,12.35
2022-09-27T22:33:54.454Z,12.38
2022-09-27T22:36:24.768Z,12.39
2022-09-27T22:38:53.362Z,12.35
2022-09-27T22:41:21.977Z,12.33
2022-09-27T22:43:53.464Z,12.33
2022-09-27T22:46:21.997Z,12.32
2022-09-27T22:48:51.040Z,12.32
2022-09-27T22:51:19.337Z,12.31
2022-09-27T22:53:47.258Z,12.30
2022-09-27T22:56:16.905Z,12.27
2022-09-27T22:58:45.072Z,12.21
2022-09-27T23:01:17.206Z,12.13
2022-09-27T23:03:45.798Z,12.07
2022-09-27T23:06:15.217Z,12.02
2022-09-27T23:08:43.843Z,11.99
2022-09-27T23:11:13.041Z,11.98
2022-09-27T23:13:42.907Z,11.96
2022-09-27T23:16:13.264Z,11.95
2022-09-27T23:18:42.977Z,11.88
2022-09-27T23:21:12.740Z,11.85
2022-09-27T23:23:42.750Z,11.80
2022-09-27T23:26:12.080Z,11.80
2022-09-27T23:28:40.830Z,11.77
2022-09-27T23:31:10.339Z,11.74
2022-09-27T23:33:39.805Z,11.71
2022-09-27T23:36:11.034Z,11.70
2022-09-27T23:38:40.346Z,11.64
2022-09-27T23:41:09.523Z,11.60
2022-09-27T23:43:38.100Z,11.53
2022-09-27T23:46:07.483Z,11.46
2022-09-27T23:48:35.999Z,11.40
2022-09-27T23:51:05.957Z,11.36
2022-09-27T23:53:35.636Z,11.36
2022-09-27T23:56:05.979Z,11.36
2022-09-27T23:58:34.532Z,11.33
